Terminal Aerodrome Forecast
Issued by NWS Charleston, WV

Current Version | Previous Version | Graphics & Text | Print | Product List | Glossary On
Versions: 1 2 3 4 5 6 7 8 9 10 11 12 13 14 15 16 17 18 19 20 21 22 23 24 25
000
FTUS41 KRLX 190900 AAB
TAFEKN
TAF AMD
KEKN 190956Z 1910/2006 00000KT 5SM BR SCT002 BKN050
      TEMPO 1910/1913 1/4SM FG VV001
     FM191400 13004KT P6SM SCT035
     FM191900 14006KT P6SM BKN035
     FM192200 14005KT P6SM SCT035
     FM200300 15004KT 6SM BR FEW035=

USA.gov is the U.S. government's official web portal to all federal, state and local government web resources and services.